Harrisburg, Pennsylvania
Current Conditions -  °F | °C
As of 9:56 AM on Thursday 23 Oct 2014 (Local Time) from KCXY Reporting Station
Overcast Overcast  
Wind Chill: 56°   Ceiling: 3100
Heat Index: 56°   Visibility: 10mi
Dew Point: 43°   Wind: 16mph
Humidity: 62%   Direction: 330°NNW
Pressure: 29.89"   Gusts: 30mph
Location:  40.26°N, 76.88°W
Report Text: KCXY 231356Z 33014G26KT 10SM OVC031 13/06 A2989 RMK AO2 PK WND 31026/1352 SLP123 T01330061
Loading
Personal Weather Stations






























Interactive Weather Map
Tropical Storm Tracking
New forecast layout! Learn more

10-Day Weather Forecast

Advertisements
Track Severe Weather on mobile